Time;durP1;ratioP1;P1;durP2;ratioP2;P2;SDS_P1;SDS_P2;PMS_P1;PMS_P2;Temp;Humidity;BMP_temperature;BMP_pressure;BME280_temperature;BME280_humidity;BME280_pressure;Samples;Min_cycle;Max_cycle;Signal;HPM_P1;HPM_P2
2024/01/20 00:01:15;;;;;;;24.20;14.50;;;-0.10;99.90;;;;;;4899914;29;20096;-86
2024/01/20 00:03:41;;;;;;;28.63;15.30;;;2.40;99.90;;;;;;4928046;23;20055;-88
2024/01/20 00:06:06;;;;;;;27.47;16.07;;;0.20;99.90;;;;;;4919586;29;20500;-89
2024/01/20 00:08:32;;;;;;;25.67;15.50;;;1.40;99.90;;;;;;4918477;29;20075;-88
2024/01/20 00:10:58;;;;;;;27.27;15.83;;;0.20;99.90;;;;;;4918775;29;20079;-88
2024/01/20 00:13:26;;;;;;;28.93;15.97;;;0.10;99.90;;;;;;4919849;29;20089;-88
2024/01/20 00:15:52;;;;;;;27.90;15.60;;;0.00;99.90;;;;;;4918845;29;20071;-89
2024/01/20 00:18:35;;;;;;;26.57;16.20;;;0.00;99.90;;;;;;4919321;29;20514;-89
2024/01/20 00:21:01;;;;;;;26.43;16.47;;;1.00;99.90;;;;;;4936726;29;20555;-88
2024/01/20 00:23:32;;;;;;;26.80;16.87;;;0.00;99.90;;;;;;4918986;29;20139;-88
2024/01/20 00:25:58;;;;;;;29.30;16.80;;;-0.30;99.90;;;;;;4919911;29;20048;-88
2024/01/20 00:28:32;;;;;;;31.37;17.10;;;-0.10;99.90;;;;;;4919860;29;20051;-88
2024/01/20 00:30:58;;;;;;;28.93;17.20;;;0.10;99.90;;;;;;4918960;29;20052;-88
2024/01/20 00:33:27;;;;;;;26.87;17.17;;;-0.40;99.90;;;;;;4919877;29;20050;-86
2024/01/20 00:36:02;;;;;;;31.97;18.30;;;1.40;99.90;;;;;;4918577;29;20111;-88
2024/01/20 00:38:32;;;;;;;26.47;16.70;;;-0.20;99.90;;;;;;4919121;29;20055;-89
2024/01/20 00:41:01;;;;;;;27.57;17.13;;;2.00;99.90;;;;;;4918812;29;20047;-88
2024/01/20 00:43:36;;;;;;;29.73;16.13;;;1.80;99.90;;;;;;4919280;29;20444;-89
2024/01/20 00:46:14;;;;;;;27.03;16.93;;;0.10;99.90;;;;;;4918817;29;20051;-88
2024/01/20 00:48:45;;;;;;;30.17;17.70;;;0.90;99.90;;;;;;4919229;29;20135;-88
2024/01/20 00:51:14;;;;;;;28.73;18.10;;;1.30;99.90;;;;;;4918138;29;20054;-88
2024/01/20 00:53:49;;;;;;;28.37;17.43;;;-0.10;99.90;;;;;;4918499;29;20118;-88
2024/01/20 00:56:18;;;;;;;28.07;17.53;;;-0.40;99.90;;;;;;4918767;29;20054;-89
2024/01/20 00:58:56;;;;;;;32.37;17.63;;;-0.30;99.90;;;;;;4917397;29;20500;-89
2024/01/20 01:01:22;;;;;;;27.27;17.03;;;0.80;99.90;;;;;;4918429;29;20436;-88
2024/01/20 01:03:56;;;;;;;30.23;17.83;;;1.10;99.90;;;;;;4917931;29;20051;-88
2024/01/20 01:06:24;;;;;;;29.67;18.00;;;-0.40;99.90;;;;;;4928077;23;20087;-88
2024/01/20 01:08:50;;;;;;;32.13;18.57;;;-0.40;99.90;;;;;;4915575;29;20051;-89
2024/01/20 01:11:19;;;;;;;31.57;18.07;;;0.80;99.90;;;;;;4914754;29;20044;-89
2024/01/20 01:13:50;;;;;;;31.43;18.50;;;-1.40;99.90;;;;;;4915555;29;20135;-89
2024/01/20 01:16:16;;;;;;;31.60;19.13;;;0.90;99.90;;;;;;4915619;29;20048;-89
2024/01/20 01:18:48;;;;;;;30.00;17.87;;;1.80;99.90;;;;;;4914824;29;20055;-88
2024/01/20 01:21:22;;;;;;;33.37;18.10;;;0.20;99.90;;;;;;4914735;29;20056;-89
2024/01/20 01:23:48;;;;;;;32.93;18.97;;;0.20;99.90;;;;;;4915638;29;20044;-88
2024/01/20 01:26:22;;;;;;;31.07;18.07;;;-0.70;99.90;;;;;;4914619;29;20048;-89
2024/01/20 01:28:53;;;;;;;30.93;18.77;;;-0.40;99.90;;;;;;4916071;29;20044;-89
2024/01/20 01:31:19;;;;;;;29.93;18.63;;;-1.00;99.90;;;;;;4915122;29;20055;-88
2024/01/20 01:33:45;;;;;;;30.77;19.97;;;;;;;;;;4914629;29;20087;-88
2024/01/20 01:36:19;;;;;;;35.23;20.07;;;-0.30;99.90;;;;;;4915176;29;20138;-89
2024/01/20 01:38:50;;;;;;;28.23;19.17;;;-0.80;99.90;;;;;;4916012;29;20055;-89
2024/01/20 01:41:16;;;;;;;30.97;20.43;;;0.00;99.90;;;;;;4914700;29;20056;-89
2024/01/20 01:43:51;;;;;;;30.40;19.17;;;-0.70;99.90;;;;;;4915802;29;20048;-89
2024/01/20 01:46:20;;;;;;;31.90;19.93;;;-0.20;99.90;;;;;;4931257;29;20131;-89
2024/01/20 01:48:50;;;;;;;33.67;21.07;;;0.90;99.90;;;;;;4917029;29;20059;-89
2024/01/20 01:51:28;;;;;;;31.93;19.97;;;-0.50;99.90;;;;;;4915510;29;20111;-89
2024/01/20 01:53:54;;;;;;;30.87;19.47;;;-1.60;99.90;;;;;;4913899;29;20094;-89
2024/01/20 01:56:20;;;;;;;33.37;20.47;;;1.10;99.90;;;;;;4915199;29;20131;-89
2024/01/20 01:58:55;;;;;;;34.13;21.07;;;0.50;99.90;;;;;;4915321;29;20052;-89
2024/01/20 02:01:21;;;;;;;32.93;19.97;;;-0.60;99.90;;;;;;4914725;29;20064;-88
2024/01/20 02:03:54;;;;;;;33.40;20.07;;;0.90;99.90;;;;;;4915882;29;20108;-89
2024/01/20 02:06:24;;;;;;;33.45;20.40;;;-0.40;99.90;;;;;;4915914;29;20056;-86
2024/01/20 02:08:53;;;;;;;36.07;21.50;;;0.60;99.90;;;;;;4914257;29;20056;-86
2024/01/20 02:11:25;;;;;;;36.20;20.83;;;0.40;99.90;;;;;;4915300;29;20397;-86
2024/01/20 02:13:54;;;;;;;34.73;21.67;;;-0.40;99.90;;;;;;4916648;29;20052;-90
2024/01/20 02:16:25;;;;;;;35.87;21.20;;;-0.30;99.90;;;;;;4914470;29;20051;-89
2024/01/20 02:18:51;;;;;;;35.70;21.43;;;1.10;99.90;;;;;;4914919;29;20065;-89
2024/01/20 02:21:22;;;;;;;31.50;20.27;;;1.10;99.90;;;;;;4914663;29;20126;-89
2024/01/20 02:23:51;;;;;;;34.83;21.50;;;0.20;99.90;;;;;;4915621;29;20040;-89
2024/01/20 02:26:20;;;;;;;39.80;22.07;;;-0.60;99.90;;;;;;4915570;29;20056;-89
2024/01/20 02:28:51;;;;;;;38.33;22.20;;;1.10;99.90;;;;;;4914788;29;20055;-88
2024/01/20 02:31:20;;;;;;;34.73;22.60;;;-0.20;99.90;;;;;;4916569;29;20134;-89
2024/01/20 02:33:52;;;;;;;35.97;21.60;;;0.80;99.90;;;;;;4918285;29;20054;-88
2024/01/20 02:36:29;;;;;;;36.00;20.53;;;-0.20;99.90;;;;;;4918672;29;20052;-89
2024/01/20 02:39:00;;;;;;;39.20;22.67;;;0.40;99.90;;;;;;4919024;29;20040;-89
2024/01/20 02:41:26;;;;;;;37.93;22.70;;;-0.80;99.90;;;;;;4919000;29;20048;-89
2024/01/20 02:43:51;;;;;;;36.43;22.23;;;0.00;99.90;;;;;;4917194;29;20055;-89
2024/01/20 02:46:20;;;;;;;34.30;21.23;;;-0.10;99.90;;;;;;4918688;29;20115;-89
2024/01/20 02:48:48;;;;;;;35.10;22.73;;;-0.10;99.90;;;;;;4918753;29;20086;-89
2024/01/20 02:51:29;;;;;;;37.90;21.83;;;-0.20;99.90;;;;;;4917313;29;20044;-89
2024/01/20 02:53:59;;;;;;;37.47;24.03;;;0.30;99.90;;;;;;4918211;29;20048;-89
2024/01/20 02:56:32;;;;;;;34.93;21.73;;;0.70;99.90;;;;;;4917911;29;20048;-90
2024/01/20 02:59:01;;;;;;;40.45;23.02;;;-1.20;99.90;;;;;;4916861;29;20044;-89
2024/01/20 03:01:30;;;;;;;38.40;23.03;;;-0.10;99.90;;;;;;4919474;29;20044;-89
2024/01/20 03:03:56;;;;;;;39.03;23.30;;;-0.60;99.90;;;;;;4916713;29;20131;-89
2024/01/20 03:06:21;;;;;;;36.40;22.67;;;0.10;99.90;;;;;;4916583;29;20107;-89
2024/01/20 03:08:55;;;;;;;39.00;24.33;;;-0.90;99.90;;;;;;4917798;29;20190;-89
2024/01/20 03:11:23;;;;;;;39.30;23.17;;;-1.10;99.90;;;;;;4917231;29;20040;-89
2024/01/20 03:13:53;;;;;;;36.80;22.13;;;-1.40;99.90;;;;;;4917927;29;20556;-89
2024/01/20 03:16:27;;;;;;;41.23;22.60;;;-0.50;99.90;;;;;;4918263;29;20495;-89
2024/01/20 03:18:55;;;;;;;38.35;23.10;;;-1.30;99.90;;;;;;4923390;23;20653;-88
2024/01/20 03:21:29;;;;;;;44.20;23.53;;;-1.00;99.90;;;;;;4917479;29;20048;-88
2024/01/20 03:23:58;;;;;;;38.03;23.50;;;0.60;99.90;;;;;;4917875;29;20040;-89
2024/01/20 03:26:26;;;;;;;38.77;22.53;;;-1.30;99.90;;;;;;4917235;29;20493;-89
2024/01/20 03:29:01;;;;;;;38.03;22.60;;;0.70;99.90;;;;;;4917540;29;20075;-89
2024/01/20 03:31:26;;;;;;;42.53;24.33;;;-1.20;99.90;;;;;;4959408;23;20390;-89
2024/01/20 03:33:52;;;;;;;40.30;23.90;;;-1.10;99.90;;;;;;4919018;29;20059;-89
2024/01/20 03:36:18;;;;;;;42.50;23.00;;;-1.00;99.90;;;;;;4920959;29;20058;-89
2024/01/20 03:38:53;;;;;;;41.30;23.20;;;-1.00;99.90;;;;;;4919966;29;20055;-89
2024/01/20 03:41:25;;;;;;;40.13;21.97;;;-0.70;99.90;;;;;;4920912;29;20070;-89
2024/01/20 03:43:59;;;;;;;40.10;22.50;;;-1.30;99.90;;;;;;4919375;29;20579;-89
2024/01/20 03:46:27;;;;;;;40.43;23.00;;;-1.20;99.90;;;;;;4920089;29;20039;-89
2024/01/20 03:48:56;;;;;;;41.60;22.83;;;-0.90;99.90;;;;;;4920372;29;20055;-89
2024/01/20 03:51:26;;;;;;;47.27;23.03;;;-1.50;99.90;;;;;;4920713;29;20043;-89
2024/01/20 03:53:52;;;;;;;49.50;23.50;;;-1.50;99.90;;;;;;4919914;29;20555;-89
2024/01/20 03:56:18;;;;;;;44.67;23.83;;;-1.40;99.90;;;;;;4921057;29;20044;-89
2024/01/20 03:58:44;;;;;;;46.80;23.67;;;-1.40;99.90;;;;;;4920659;29;20058;-89
2024/01/20 04:01:16;;;;;;;46.80;23.30;;;-0.20;99.90;;;;;;4919684;29;20054;-89
2024/01/20 04:03:59;;;;;;;46.97;23.67;;;-2.20;99.90;;;;;;4920907;29;20052;-89
2024/01/20 04:06:32;;;;;;;47.88;22.88;;;-1.90;99.90;;;;;;4920953;29;20116;-89
2024/01/20 04:08:58;;;;;;;45.73;22.40;;;-1.50;99.90;;;;;;4919562;29;20179;-89
2024/01/20 04:11:31;;;;;;;46.30;24.13;;;-1.60;99.90;;;;;;4920903;29;20146;-89
2024/01/20 04:14:11;;;;;;;46.57;23.33;;;-1.50;99.90;;;;;;4919284;29;20055;-90
2024/01/20 04:16:37;;;;;;;44.40;22.97;;;-1.00;99.90;;;;;;4935747;29;20048;-89
2024/01/20 04:19:26;;;;;;;48.70;24.30;;;0.00;99.90;;;;;;4920180;29;20053;-90
2024/01/20 04:21:54;;;;;;;44.10;22.53;;;-1.30;99.90;;;;;;4862373;29;20064;-89
2024/01/20 04:24:26;;;;;;;47.67;23.63;;;-1.50;99.90;;;;;;4863025;29;20136;-89
2024/01/20 04:26:57;;;;;;;47.63;23.70;;;-1.30;99.90;;;;;;4862578;29;20049;-89
2024/01/20 04:29:26;;;;;;;48.67;22.47;;;-1.30;99.90;;;;;;4861853;29;20132;-89
2024/01/20 04:32:58;;;;;;;51.03;24.23;;;0.10;99.90;;;;;;4861795;29;20434;-89
2024/01/20 04:35:27;;;;;;;45.40;22.67;;;-2.00;99.90;;;;;;4861844;29;20418;-89
2024/01/20 04:37:59;;;;;;;52.27;23.37;;;0.20;99.90;;;;;;4862173;29;20048;-89
2024/01/20 04:40:25;;;;;;;43.43;21.67;;;-0.90;99.90;;;;;;4862947;29;20052;-89
2024/01/20 04:42:53;;;;;;;49.47;22.23;;;-1.50;99.90;;;;;;4933760;29;20056;-89
2024/01/20 04:45:22;;;;;;;48.80;22.10;;;-1.50;99.90;;;;;;4919665;29;20507;-89
2024/01/20 04:47:51;;;;;;;48.03;22.97;;;-1.50;99.90;;;;;;4919292;29;20484;-89
2024/01/20 04:50:16;;;;;;;46.30;22.77;;;-1.50;99.90;;;;;;4909772;23;20108;-89
2024/01/20 04:52:42;;;;;;;50.10;22.47;;;-1.20;99.90;;;;;;4917237;29;20048;-89
2024/01/20 04:55:11;;;;;;;51.13;22.93;;;-1.20;99.90;;;;;;4900176;29;20060;-89
2024/01/20 04:57:43;;;;;;;44.30;21.70;;;-1.50;99.90;;;;;;4899695;29;20052;-89
2024/01/20 05:00:18;;;;;;;49.70;21.33;;;-1.00;99.90;;;;;;4900090;29;20374;-89
2024/01/20 05:02:43;;;;;;;52.23;22.53;;;-1.10;99.90;;;;;;4909266;29;20067;-89
2024/01/20 05:05:18;;;;;;;45.93;21.80;;;-1.40;99.90;;;;;;4898384;29;20524;-89
2024/01/20 05:07:46;;;;;;;55.90;23.83;;;-2.40;99.90;;;;;;4900006;29;20107;-89
2024/01/20 05:10:14;;;;;;;45.50;22.70;;;-0.20;99.90;;;;;;4899041;29;20417;-89
2024/01/20 05:12:42;;;;;;;46.90;20.80;;;-1.40;99.90;;;;;;4900560;29;20058;-89
2024/01/20 05:15:15;;;;;;;55.03;23.00;;;-1.50;99.90;;;;;;4900080;29;20044;-89
2024/01/20 05:17:44;;;;;;;45.65;22.08;;;-1.10;99.90;;;;;;4899023;29;20531;-89
2024/01/20 05:20:16;;;;;;;49.70;22.03;;;-1.50;99.90;;;;;;4899857;29;20100;-89
2024/01/20 05:22:48;;;;;;;48.63;22.57;;;-1.70;99.90;;;;;;4900813;29;20136;-89
2024/01/20 05:25:19;;;;;;;51.83;23.50;;;0.20;99.90;;;;;;4900191;29;20048;-90
2024/01/20 05:27:51;;;;;;;50.90;22.93;;;0.40;99.90;;;;;;4901289;29;20135;-90
2024/01/20 05:30:21;;;;;;;51.13;22.73;;;-1.60;99.90;;;;;;4900830;29;20048;-89
2024/01/20 05:32:52;;;;;;;51.20;22.77;;;-1.80;99.90;;;;;;4908633;29;20130;-89
2024/01/20 05:35:27;;;;;;;52.57;23.07;;;-0.10;99.90;;;;;;4919563;29;20040;-89
2024/01/20 05:37:59;;;;;;;53.77;22.00;;;-0.30;99.90;;;;;;4918774;29;20571;-89
2024/01/20 05:40:34;;;;;;;49.93;22.50;;;-0.50;99.90;;;;;;4918771;29;20082;-89
2024/01/20 05:43:04;;;;;;;52.93;23.20;;;-0.70;99.90;;;;;;4919441;29;20480;-89
2024/01/20 05:45:32;;;;;;;51.03;22.23;;;0.40;99.90;;;;;;4918489;29;20115;-89
2024/01/20 05:48:01;;;;;;;53.47;22.80;;;-0.90;99.90;;;;;;4919145;29;20564;-90
2024/01/20 05:50:27;;;;;;;56.30;22.90;;;-1.40;99.90;;;;;;4919302;29;20476;-89
2024/01/20 05:52:53;;;;;;;48.33;21.63;;;-2.10;99.90;;;;;;4919025;29;20086;-90
2024/01/20 05:55:18;;;;;;;48.17;21.70;;;-2.10;99.90;;;;;;4920718;29;20051;-89
2024/01/20 05:57:50;;;;;;;50.80;21.40;;;-1.20;99.90;;;;;;4920358;29;20083;-89
2024/01/20 06:00:21;;;;;;;50.40;21.67;;;-0.20;99.90;;;;;;4920804;29;20043;-90
2024/01/20 06:02:51;;;;;;;49.63;21.20;;;-1.60;99.90;;;;;;4921299;29;20514;-90
2024/01/20 06:05:17;;;;;;;43.60;20.53;;;-1.40;99.90;;;;;;4919878;29;20127;-89
2024/01/20 06:07:46;;;;;;;49.27;21.90;;;-2.00;99.90;;;;;;4922382;29;20473;-90
2024/01/20 06:10:17;;;;;;;48.23;22.37;;;-1.90;99.90;;;;;;4922453;29;20380;-90
2024/01/20 06:12:48;;;;;;;49.00;20.97;;;-2.70;99.90;;;;;;4923063;29;20511;-90
2024/01/20 06:15:14;;;;;;;49.53;21.23;;;0.30;99.90;;;;;;4922336;29;20039;-90
2024/01/20 06:17:39;;;;;;;50.17;22.33;;;-1.30;99.90;;;;;;4914194;23;20575;-90
2024/01/20 06:20:09;;;;;;;48.23;20.97;;;-0.70;99.90;;;;;;4904130;29;20098;-90
2024/01/20 06:22:39;;;;;;;50.23;20.07;;;-1.60;99.90;;;;;;4904355;29;20625;-89
2024/01/20 06:25:30;;;;;;;47.23;20.30;;;0.10;99.90;;;;;;4905993;29;20091;-89
2024/01/20 06:28:03;;;;;;;43.63;19.33;;;-0.60;99.90;;;;;;4903859;29;20051;-90
2024/01/20 06:36:27;;;;;;;45.37;19.07;;;-1.30;99.90;;;;;;4918886;29;20056;-91
2024/01/20 06:48:39;;;;;;;42.10;19.40;;;0.20;99.90;;;;;;4880838;29;20113;-89
2024/01/20 06:51:14;;;;;;;45.17;19.57;;;-1.50;99.90;;;;;;4865797;29;20482;-91
2024/01/20 06:54:08;;;;;;;44.60;19.45;;;-1.20;99.90;;;;;;4854158;29;20576;-90
2024/01/20 06:56:34;;;;;;;41.53;19.37;;;-0.40;99.90;;;;;;4864178;29;20051;-89
2024/01/20 06:59:03;;;;;;;42.50;19.03;;;0.20;99.90;;;;;;4863554;29;20140;-90
2024/01/20 07:01:34;;;;;;;39.67;18.93;;;1.40;99.90;;;;;;4865790;29;20045;-90
2024/01/20 07:04:22;;;;;;;48.10;20.73;;;1.10;99.90;;;;;;4865764;29;20064;-89
2024/01/20 07:09:30;;;;;;;46.43;20.73;;;-1.10;99.90;;;;;;5475582;23;20026;-84
2024/01/20 07:12:21;;;;;;;47.40;20.43;;;-1.50;99.90;;;;;;4898560;29;20059;-82
2024/01/20 07:14:48;;;;;;;45.13;19.47;;;-1.50;99.90;;;;;;4901175;29;20108;-85
2024/01/20 07:17:13;;;;;;;45.80;19.60;;;-1.50;99.90;;;;;;4902546;29;20123;-85
2024/01/20 07:19:39;;;;;;;40.97;18.87;;;-1.60;99.90;;;;;;4899235;29;20458;-85
2024/01/20 07:22:07;;;;;;;45.93;20.43;;;-1.50;99.90;;;;;;4895565;29;20036;-85
2024/01/20 07:24:32;;;;;;;44.83;18.57;;;-1.70;99.90;;;;;;4883145;29;20481;-84
2024/01/20 07:26:58;;;;;;;48.77;20.53;;;-1.60;99.90;;;;;;4882435;29;20041;-84
2024/01/20 07:29:24;;;;;;;45.77;19.70;;;-1.50;99.90;;;;;;4920376;29;20074;-85
2024/01/20 07:31:50;;;;;;;45.07;18.70;;;-1.50;99.90;;;;;;4936266;29;20377;-85
2024/01/20 07:34:16;;;;;;;47.87;19.50;;;-1.60;99.90;;;;;;4919995;29;20055;-84
2024/01/20 07:36:41;;;;;;;44.10;19.13;;;-1.50;99.90;;;;;;4937216;29;20048;-85
2024/01/20 07:39:08;;;;;;;48.63;19.40;;;-1.50;99.90;;;;;;4919516;29;20055;-84
2024/01/20 07:41:33;;;;;;;42.27;20.33;;;-1.60;99.90;;;;;;4920601;29;20086;-84
2024/01/20 07:43:59;;;;;;;47.00;20.60;;;-1.50;99.90;;;;;;4920121;29;20051;-86
2024/01/20 07:46:25;;;;;;;42.00;18.70;;;-1.50;99.90;;;;;;4919680;29;20040;-87
2024/01/20 07:48:50;;;;;;;47.27;19.30;;;-1.50;99.90;;;;;;4919995;29;20075;-85
2024/01/20 07:51:16;;;;;;;45.17;18.47;;;0.00;99.90;;;;;;4920594;29;20408;-85
2024/01/20 07:53:42;;;;;;;46.20;20.47;;;-1.20;99.90;;;;;;4919774;29;20043;-85
2024/01/20 07:56:09;;;;;;;41.73;19.07;;;-1.40;99.90;;;;;;4920547;29;20043;-85
2024/01/20 07:58:35;;;;;;;43.90;18.43;;;-1.40;99.90;;;;;;4908956;29;20082;-87
2024/01/20 08:01:01;;;;;;;46.90;19.70;;;-0.10;99.90;;;;;;4901367;29;20048;-85
2024/01/20 08:03:27;;;;;;;46.70;18.37;;;-1.30;99.90;;;;;;4900548;29;20052;-82
2024/01/20 08:05:52;;;;;;;43.10;19.20;;;-1.30;99.90;;;;;;4899628;29;20115;-82
2024/01/20 08:08:18;;;;;;;43.23;18.40;;;-1.30;99.90;;;;;;4899821;29;20048;-84
2024/01/20 08:10:44;;;;;;;41.50;19.27;;;-1.30;99.90;;;;;;4900069;29;20052;-81
2024/01/20 08:13:10;;;;;;;45.23;19.03;;;-0.90;99.90;;;;;;4900104;29;20084;-87
2024/01/20 08:15:35;;;;;;;42.20;19.17;;;-1.20;99.90;;;;;;4901001;29;20400;-84
2024/01/20 08:18:01;;;;;;;43.10;19.80;;;0.20;99.90;;;;;;4900685;29;20108;-84
2024/01/20 08:20:27;;;;;;;39.90;18.00;;;-0.20;99.90;;;;;;4900385;29;20107;-84
2024/01/20 08:22:53;;;;;;;44.70;19.53;;;-1.10;99.90;;;;;;4901055;29;20421;-84
2024/01/20 08:25:18;;;;;;;40.37;17.73;;;-0.60;99.90;;;;;;4924774;23;20074;-83
2024/01/20 08:27:44;;;;;;;42.67;18.37;;;-1.00;99.90;;;;;;4937736;28;20051;-83
2024/01/20 08:30:10;;;;;;;45.33;19.40;;;-1.00;99.90;;;;;;4937726;29;20042;-85
2024/01/20 08:32:37;;;;;;;39.97;17.57;;;-1.00;99.90;;;;;;4934022;29;20559;-86
2024/01/20 08:35:03;;;;;;;46.80;18.40;;;-0.90;99.90;;;;;;4927084;29;20051;-84
2024/01/20 08:37:28;;;;;;;44.97;19.60;;;-0.90;99.90;;;;;;4925901;29;20032;-84
2024/01/20 08:39:54;;;;;;;43.77;18.63;;;-0.80;99.90;;;;;;4929872;29;20051;-83
2024/01/20 08:42:20;;;;;;;42.60;17.80;;;-0.80;99.90;;;;;;4936650;29;20031;-85
2024/01/20 08:44:45;;;;;;;41.20;18.33;;;-0.70;99.90;;;;;;4937305;29;20058;-82
2024/01/20 08:47:11;;;;;;;43.17;19.50;;;-0.70;99.90;;;;;;4936662;29;20059;-82
2024/01/20 08:49:36;;;;;;;42.07;19.63;;;-0.60;99.90;;;;;;4936534;29;20167;-82
2024/01/20 08:52:02;;;;;;;43.10;18.17;;;-0.60;99.90;;;;;;4935950;29;20046;-82
2024/01/20 08:54:28;;;;;;;37.67;17.30;;;-0.50;99.90;;;;;;4938092;29;20502;-82
2024/01/20 08:56:53;;;;;;;40.53;18.07;;;-0.40;99.90;;;;;;4937442;29;20039;-82
2024/01/20 08:59:19;;;;;;;41.00;18.03;;;-0.40;99.90;;;;;;4938643;29;20054;-82
2024/01/20 09:01:45;;;;;;;40.47;19.07;;;-0.30;99.90;;;;;;4938223;29;20039;-82
2024/01/20 09:04:11;;;;;;;38.93;18.17;;;-0.20;99.90;;;;;;4936917;29;20058;-82
2024/01/20 09:06:36;;;;;;;39.00;18.00;;;-0.20;99.90;;;;;;4938288;29;20055;-80
2024/01/20 09:09:02;;;;;;;37.77;17.10;;;-0.10;99.90;;;;;;4955182;29;20039;-80
2024/01/20 09:11:28;;;;;;;38.83;17.03;;;0.00;99.90;;;;;;4937074;29;20040;-80
2024/01/20 09:13:53;;;;;;;38.53;17.07;;;0.00;99.90;;;;;;4937766;29;20059;-81
2024/01/20 09:16:19;;;;;;;35.10;16.90;;;0.00;99.90;;;;;;4937124;29;20040;-80
2024/01/20 09:18:44;;;;;;;38.60;18.07;;;0.10;99.90;;;;;;4937890;29;20055;-81
2024/01/20 09:21:14;;;;;;;39.67;18.20;;;0.10;99.90;;;;;;4937785;29;20058;-81
2024/01/20 09:23:40;;;;;;;38.33;17.83;;;0.10;99.90;;;;;;4937013;29;20051;-81
2024/01/20 09:26:06;;;;;;;39.00;16.97;;;0.10;99.90;;;;;;4937312;29;20094;-81
2024/01/20 09:28:31;;;;;;;35.07;16.43;;;0.10;99.90;;;;;;4937670;29;20078;-81
2024/01/20 09:30:57;;;;;;;35.87;15.90;;;0.10;99.90;;;;;;4937169;29;20130;-81
2024/01/20 09:33:22;;;;;;;36.70;16.47;;;0.00;99.90;;;;;;4937211;29;20055;-81
2024/01/20 09:35:48;;;;;;;36.20;16.57;;;0.60;99.90;;;;;;4937660;29;20043;-81
2024/01/20 09:38:13;;;;;;;37.47;16.63;;;0.10;99.90;;;;;;4953877;28;20055;-81
2024/01/20 09:40:39;;;;;;;37.40;16.67;;;0.10;99.90;;;;;;4937384;29;20078;-81
2024/01/20 09:43:05;;;;;;;36.90;16.47;;;0.20;99.90;;;;;;4937376;29;20399;-81
2024/01/20 09:45:34;;;;;;;39.50;17.00;;;0.10;99.90;;;;;;4936687;29;20130;-81
2024/01/20 09:47:59;;;;;;;37.43;16.37;;;0.20;99.90;;;;;;4954292;29;20047;-81
2024/01/20 09:50:25;;;;;;;32.73;15.57;;;0.20;99.90;;;;;;4937518;29;20122;-81
2024/01/20 09:52:58;;;;;;;35.97;15.50;;;0.20;99.90;;;;;;4936774;29;20488;-81
2024/01/20 09:55:25;;;;;;;34.97;16.27;;;0.30;99.90;;;;;;4937344;29;20058;-81
2024/01/20 09:57:51;;;;;;;33.30;17.13;;;0.40;99.90;;;;;;4937731;29;20050;-81
2024/01/20 10:00:19;;;;;;;34.97;16.23;;;0.40;99.90;;;;;;4936617;29;20047;-81
2024/01/20 10:02:46;;;;;;;34.80;15.77;;;0.50;99.90;;;;;;4937105;29;20047;-81
2024/01/20 10:05:12;;;;;;;31.93;15.07;;;0.50;99.90;;;;;;4937055;29;20078;-81
2024/01/20 10:07:38;;;;;;;32.20;15.03;;;0.60;99.90;;;;;;4936696;29;20043;-81
2024/01/20 10:10:05;;;;;;;35.87;15.60;;;0.70;99.90;;;;;;4937179;29;20075;-81
2024/01/20 10:12:31;;;;;;;35.70;15.50;;;0.80;99.90;;;;;;4936534;29;20051;-81
2024/01/20 10:14:56;;;;;;;31.47;14.87;;;1.00;99.90;;;;;;4937088;29;20099;-81
2024/01/20 10:17:22;;;;;;;30.63;14.87;;;0.90;99.90;;;;;;4937279;29;20031;-81
2024/01/20 10:19:48;;;;;;;30.20;14.73;;;0.90;99.90;;;;;;4936613;29;20047;-81
2024/01/20 10:22:13;;;;;;;31.50;14.07;;;0.90;99.90;;;;;;4937063;29;20043;-81
2024/01/20 10:24:52;;;;;;;32.17;14.03;;;1.00;99.90;;;;;;4936988;28;20063;-81
2024/01/20 10:27:19;;;;;;;29.90;14.33;;;1.00;99.90;;;;;;4936799;29;20065;-81
2024/01/20 10:29:46;;;;;;;30.40;14.20;;;0.90;99.90;;;;;;4937198;29;20491;-81
2024/01/20 10:32:13;;;;;;;28.03;13.97;;;0.90;99.90;;;;;;4936631;29;20062;-81
2024/01/20 10:34:39;;;;;;;31.73;14.73;;;0.90;99.90;;;;;;4936166;29;20043;-81
2024/01/20 10:37:10;;;;;;;29.17;13.67;;;0.90;99.90;;;;;;4936785;29;20075;-81
2024/01/20 10:39:45;;;;;;;30.93;13.87;;;0.90;99.90;;;;;;4937117;29;20039;-81
2024/01/20 10:42:15;;;;;;;32.10;14.03;;;1.00;99.90;;;;;;4936450;29;20392;-81
2024/01/20 10:45:07;;;;;;;30.77;14.40;;;0.90;99.90;;;;;;4937260;29;20062;-81
2024/01/20 10:47:38;;;;;;;30.90;13.30;;;1.00;99.90;;;;;;4936947;29;20051;-81
2024/01/20 10:50:05;;;;;;;28.90;13.10;;;1.00;99.90;;;;;;4936739;29;20058;-81
2024/01/20 10:52:33;;;;;;;28.43;13.33;;;1.00;99.90;;;;;;4938758;29;20070;-81
2024/01/20 10:55:00;;;;;;;25.33;12.43;;;1.00;99.90;;;;;;4939381;29;20046;-81
2024/01/20 10:57:27;;;;;;;30.70;14.13;;;1.10;99.90;;;;;;4940439;29;20075;-81
2024/01/20 10:59:54;;;;;;;30.07;13.67;;;1.10;99.90;;;;;;4939948;29;20047;-81
2024/01/20 11:02:21;;;;;;;31.37;14.13;;;1.10;99.90;;;;;;4939951;29;20403;-81
2024/01/20 11:04:47;;;;;;;29.00;13.40;;;1.10;99.90;;;;;;4940162;29;20062;-81
2024/01/20 11:07:13;;;;;;;29.90;13.70;;;1.10;99.90;;;;;;4940012;29;20050;-81
2024/01/20 11:09:39;;;;;;;29.03;13.03;;;1.10;99.90;;;;;;4956924;29;20047;-81
2024/01/20 11:12:07;;;;;;;29.40;14.23;;;1.10;99.90;;;;;;4939979;29;20043;-81
2024/01/20 11:14:33;;;;;;;31.63;14.50;;;1.10;99.90;;;;;;4940324;29;20039;-81
2024/01/20 11:17:12;;;;;;;27.07;13.47;;;1.10;99.90;;;;;;4938879;29;20400;-81
2024/01/20 11:19:38;;;;;;;27.27;12.73;;;1.20;99.90;;;;;;4939907;29;20082;-81
2024/01/20 11:22:05;;;;;;;28.47;13.37;;;1.10;99.90;;;;;;4939589;29;20078;-81
2024/01/20 11:24:38;;;;;;;30.23;13.13;;;1.20;99.90;;;;;;4939107;28;20488;-81
2024/01/20 11:27:04;;;;;;;28.42;13.45;;;1.20;99.90;;;;;;4939961;29;20055;-81
2024/01/20 11:29:29;;;;;;;33.23;13.97;;;1.20;99.90;;;;;;4957111;28;20082;-81
2024/01/20 11:31:56;;;;;;;30.63;13.50;;;1.20;99.90;;;;;;4938957;29;20429;-81
2024/01/20 11:34:22;;;;;;;30.00;14.10;;;1.30;99.90;;;;;;4939888;29;20070;-81
2024/01/20 11:36:48;;;;;;;33.17;14.37;;;1.30;99.90;;;;;;4939468;29;20043;-81
2024/01/20 11:39:14;;;;;;;26.67;12.70;;;1.20;99.90;;;;;;4939516;29;20055;-81
2024/01/20 11:41:40;;;;;;;29.70;13.63;;;1.20;99.90;;;;;;4939969;29;20050;-81
2024/01/20 11:44:06;;;;;;;31.27;13.27;;;1.30;99.90;;;;;;4955819;29;20044;-81
2024/01/20 11:46:32;;;;;;;31.50;14.23;;;1.30;99.90;;;;;;4956797;29;20523;-81
2024/01/20 11:48:57;;;;;;;25.70;12.97;;;1.30;99.90;;;;;;4939185;29;20043;-81
2024/01/20 11:51:23;;;;;;;28.57;13.73;;;2.70;99.90;;;;;;4938946;29;20053;-81
2024/01/20 11:53:49;;;;;;;26.33;12.60;;;1.30;99.90;;;;;;4939337;29;20050;-81
2024/01/20 11:56:16;;;;;;;27.43;13.50;;;1.40;99.90;;;;;;4939099;29;20039;-81
2024/01/20 11:58:41;;;;;;;28.97;13.60;;;1.40;99.90;;;;;;4938752;29;20063;-80
2024/01/20 12:01:07;;;;;;;27.33;12.80;;;1.40;99.90;;;;;;4938989;29;20044;-80
2024/01/20 12:03:33;;;;;;;26.57;12.57;;;1.50;99.90;;;;;;4954145;23;20055;-80
2024/01/20 12:06:06;;;;;;;28.67;12.93;;;1.50;99.90;;;;;;4900452;29;20048;-80
2024/01/20 12:08:32;;;;;;;25.95;13.00;;;1.50;99.90;;;;;;4901481;29;20087;-80
2024/01/20 12:10:58;;;;;;;27.03;12.53;;;1.60;99.90;;;;;;4901358;29;20079;-82
2024/01/20 12:13:32;;;;;;;27.17;12.40;;;1.60;99.90;;;;;;4900446;29;20500;-83
2024/01/20 12:15:58;;;;;;;25.00;12.67;;;1.60;99.90;;;;;;4901169;29;20044;-81
2024/01/20 12:18:24;;;;;;;25.87;13.17;;;1.60;99.90;;;;;;4901395;29;20135;-81
2024/01/20 12:20:50;;;;;;;27.20;12.30;;;1.70;99.90;;;;;;4900403;29;20082;-82
2024/01/20 12:23:22;;;;;;;24.47;11.27;;;1.70;99.90;;;;;;4900689;29;20076;-82
2024/01/20 12:25:54;;;;;;;30.60;12.67;;;1.60;99.90;;;;;;4901239;29;20108;-82
2024/01/20 12:28:21;;;;;;;26.80;12.00;;;1.70;99.90;;;;;;4900388;29;20063;-82
2024/01/20 12:30:46;;;;;;;26.83;12.30;;;1.80;99.90;;;;;;4901048;29;20051;-82
2024/01/20 12:33:12;;;;;;;27.57;13.17;;;1.80;99.90;;;;;;4899755;29;20485;-82
2024/01/20 12:35:38;;;;;;;25.27;12.43;;;1.80;99.90;;;;;;4900758;29;20044;-82
2024/01/20 12:38:03;;;;;;;25.27;11.93;;;1.80;99.90;;;;;;4900501;29;20050;-82
2024/01/20 12:40:29;;;;;;;27.07;12.17;;;1.80;99.90;;;;;;4899936;29;20097;-82
2024/01/20 12:42:56;;;;;;;26.23;12.47;;;1.80;99.90;;;;;;4900697;29;20433;-82
2024/01/20 12:45:21;;;;;;;26.67;12.53;;;1.80;99.90;;;;;;4900851;29;20392;-81
2024/01/20 12:47:49;;;;;;;28.23;13.03;;;1.80;99.90;;;;;;4900247;29;20134;-82
2024/01/20 12:50:15;;;;;;;26.93;11.80;;;1.80;99.90;;;;;;4917149;29;20080;-82
2024/01/20 12:52:41;;;;;;;25.33;11.97;;;1.80;99.90;;;;;;4900622;29;20048;-82
2024/01/20 12:55:07;;;;;;;27.10;12.47;;;1.80;99.90;;;;;;4899338;29;20091;-82
2024/01/20 12:57:33;;;;;;;27.70;11.90;;;1.80;99.90;;;;;;4900345;29;20043;-82
2024/01/20 12:59:59;;;;;;;25.50;12.00;;;1.70;99.90;;;;;;4898907;29;20437;-82